createdAt,value
2017-09-20T00:00:31.659Z,22.9
2017-09-20T00:01:39.784Z,22.9
2017-09-20T00:02:47.878Z,22.9
2017-09-20T00:03:55.955Z,22.9
2017-09-20T00:05:04.041Z,22.8
2017-09-20T00:06:12.130Z,22.9
2017-09-20T00:07:20.218Z,22.8
2017-09-20T00:08:28.306Z,22.9
2017-09-20T00:09:36.394Z,22.8
2017-09-20T00:10:44.481Z,22.9
2017-09-20T00:11:52.575Z,22.9
2017-09-20T00:13:00.658Z,23.0
2017-09-20T00:14:08.758Z,22.8
2017-09-20T00:15:16.852Z,22.9
2017-09-20T00:16:24.936Z,22.9
2017-09-20T00:17:33.021Z,22.8
2017-09-20T00:18:41.109Z,22.8
2017-09-20T00:19:49.200Z,22.9
2017-09-20T00:20:57.288Z,22.8
2017-09-20T00:22:05.376Z,22.9
2017-09-20T00:23:13.462Z,22.9
2017-09-20T00:24:21.551Z,22.8
2017-09-20T00:25:29.647Z,22.9
2017-09-20T00:26:37.740Z,22.9
2017-09-20T00:27:45.824Z,22.9
2017-09-20T00:28:53.917Z,22.9
2017-09-20T00:30:02.002Z,22.9
2017-09-20T00:31:10.088Z,22.9
2017-09-20T00:32:18.176Z,22.9
2017-09-20T00:33:26.282Z,22.9
2017-09-20T00:34:34.350Z,22.9
2017-09-20T00:35:42.441Z,22.9
2017-09-20T00:36:50.529Z,22.9
2017-09-20T00:37:58.617Z,22.9
2017-09-20T00:39:06.722Z,22.9
2017-09-20T00:40:14.792Z,22.9
2017-09-20T00:41:22.879Z,22.8
2017-09-20T00:42:30.967Z,22.9
2017-09-20T00:43:39.056Z,22.9
2017-09-20T00:44:47.146Z,22.8
2017-09-20T00:45:55.231Z,22.8
2017-09-20T00:47:03.320Z,22.9
2017-09-20T00:48:11.408Z,22.8
2017-09-20T00:49:19.499Z,22.8
2017-09-20T00:50:27.588Z,22.8
2017-09-20T00:51:35.669Z,22.8
2017-09-20T00:52:43.759Z,22.7
2017-09-20T00:53:51.845Z,22.8
2017-09-20T00:54:59.933Z,22.8
2017-09-20T00:56:08.023Z,22.8
2017-09-20T00:57:16.111Z,22.7
2017-09-20T00:58:24.200Z,22.8
2017-09-20T00:59:32.286Z,22.8
2017-09-20T01:00:40.375Z,22.8
2017-09-20T01:01:48.462Z,22.7
2017-09-20T01:02:56.548Z,22.9
2017-09-20T01:04:04.683Z,22.8
2017-09-20T01:05:12.725Z,22.7
2017-09-20T01:06:20.823Z,22.8
2017-09-20T01:07:28.910Z,22.8
2017-09-20T01:08:36.999Z,22.8
2017-09-20T01:09:45.085Z,22.8
2017-09-20T01:10:53.173Z,22.8
2017-09-20T01:12:01.261Z,22.8
2017-09-20T01:13:09.351Z,22.7
2017-09-20T01:14:17.438Z,22.8
2017-09-20T01:15:25.526Z,22.7
2017-09-20T01:16:33.613Z,22.8
2017-09-20T01:17:41.704Z,22.8
2017-09-20T01:18:49.794Z,22.6
2017-09-20T01:19:57.876Z,22.8
2017-09-20T01:21:05.968Z,22.7
2017-09-20T01:22:14.052Z,22.6
2017-09-20T01:23:22.141Z,22.8
2017-09-20T01:24:30.230Z,22.7
2017-09-20T01:25:38.324Z,22.7
2017-09-20T01:26:46.407Z,22.7
2017-09-20T01:27:54.493Z,22.6
2017-09-20T01:29:02.585Z,22.6
2017-09-20T01:30:10.670Z,22.7
2017-09-20T01:31:18.762Z,22.6
2017-09-20T01:32:26.845Z,22.7
2017-09-20T01:33:34.933Z,22.6
2017-09-20T01:34:43.021Z,22.6
2017-09-20T01:35:51.127Z,22.6
2017-09-20T01:36:59.215Z,22.7
2017-09-20T01:38:07.305Z,22.6
2017-09-20T01:39:15.391Z,22.7
2017-09-20T01:40:23.480Z,22.6
2017-09-20T01:41:31.569Z,22.6
2017-09-20T01:42:39.656Z,22.6
2017-09-20T01:43:47.745Z,22.6
2017-09-20T01:44:55.829Z,22.6
2017-09-20T01:46:03.918Z,22.6
2017-09-20T01:47:12.006Z,22.6
2017-09-20T01:48:20.094Z,22.6
2017-09-20T01:49:28.182Z,22.5
2017-09-20T01:50:36.272Z,22.6
2017-09-20T01:51:44.358Z,22.5
2017-09-20T01:52:52.444Z,22.6
2017-09-20T01:54:00.532Z,22.6
2017-09-20T01:55:08.618Z,22.6
2017-09-20T01:56:16.708Z,22.5
2017-09-20T01:57:24.796Z,22.6
2017-09-20T01:58:32.883Z,22.5
2017-09-20T01:59:40.971Z,22.6
2017-09-20T02:00:49.059Z,22.5
2017-09-20T02:01:57.147Z,22.5
2017-09-20T02:03:05.234Z,22.5
2017-09-20T02:04:13.321Z,22.5
2017-09-20T02:05:21.408Z,22.5
2017-09-20T02:06:29.497Z,22.4
2017-09-20T02:07:37.584Z,22.5
2017-09-20T02:08:45.684Z,22.5
2017-09-20T02:09:53.761Z,22.5
2017-09-20T02:11:01.850Z,22.5
2017-09-20T02:12:09.936Z,22.6
2017-09-20T02:13:18.022Z,22.5
2017-09-20T02:14:26.108Z,22.5
2017-09-20T02:15:34.196Z,22.6
2017-09-20T02:16:42.285Z,22.5
2017-09-20T02:17:50.392Z,22.4
2017-09-20T02:18:58.460Z,22.4
2017-09-20T02:20:06.553Z,22.4
2017-09-20T02:21:14.638Z,22.4
2017-09-20T02:22:22.731Z,22.3
2017-09-20T02:23:30.809Z,22.4
2017-09-20T02:24:38.905Z,22.3
2017-09-20T02:25:46.994Z,22.4
2017-09-20T02:26:55.085Z,22.4
2017-09-20T02:28:03.170Z,22.4
2017-09-20T02:29:11.257Z,22.4
2017-09-20T02:30:19.343Z,22.3
2017-09-20T02:31:27.431Z,22.3
2017-09-20T02:32:35.517Z,22.3
2017-09-20T02:33:43.605Z,22.3
2017-09-20T02:34:51.693Z,22.3
2017-09-20T02:35:59.786Z,22.3
2017-09-20T02:37:07.870Z,22.3
2017-09-20T02:38:15.959Z,22.3
2017-09-20T02:39:24.042Z,22.2
2017-09-20T02:40:32.135Z,22.3
2017-09-20T02:41:40.216Z,22.3
2017-09-20T02:42:48.304Z,22.3
2017-09-20T02:43:56.391Z,22.3
2017-09-20T02:45:04.487Z,22.2
2017-09-20T02:46:12.569Z,22.2
2017-09-20T02:47:20.667Z,22.2
2017-09-20T02:48:28.744Z,22.1
2017-09-20T02:49:36.834Z,22.2
2017-09-20T02:50:44.918Z,22.2
2017-09-20T02:51:53.007Z,22.3
2017-09-20T02:53:01.093Z,22.2
2017-09-20T02:54:09.181Z,22.2
2017-09-20T02:55:17.269Z,22.1
2017-09-20T02:56:25.359Z,22.2
2017-09-20T02:57:33.454Z,22.2
2017-09-20T02:58:41.533Z,22.1
2017-09-20T02:59:49.644Z,22.1
2017-09-20T03:00:57.730Z,22.0
2017-09-20T03:02:05.824Z,22.1
2017-09-20T03:03:13.905Z,22.1
2017-09-20T03:04:21.995Z,22.0
2017-09-20T03:05:30.079Z,22.1
2017-09-20T03:06:38.168Z,22.1
2017-09-20T03:07:46.260Z,22.1
2017-09-20T03:08:54.341Z,22.1
2017-09-20T03:10:02.428Z,22.0
2017-09-20T03:11:10.519Z,22.1
2017-09-20T03:12:18.605Z,22.0
2017-09-20T03:13:26.692Z,22.1
2017-09-20T03:14:34.780Z,22.0
2017-09-20T03:15:42.884Z,22.0
2017-09-20T03:16:50.974Z,22.0
2017-09-20T03:17:59.058Z,21.9
2017-09-20T03:19:07.149Z,22.0
2017-09-20T03:20:15.233Z,21.9
2017-09-20T03:21:23.320Z,22.0
2017-09-20T03:22:31.406Z,22.0
2017-09-20T03:23:39.495Z,22.0
2017-09-20T03:24:47.582Z,22.0
2017-09-20T03:25:55.670Z,21.9
2017-09-20T03:27:03.761Z,21.9
2017-09-20T03:28:11.844Z,21.9
2017-09-20T03:29:19.932Z,21.9
2017-09-20T03:30:28.020Z,21.9
2017-09-20T03:31:36.107Z,21.9
2017-09-20T03:32:44.195Z,21.9
2017-09-20T03:33:52.284Z,21.8
2017-09-20T03:35:00.369Z,21.9
2017-09-20T03:36:08.456Z,21.8
2017-09-20T03:37:16.544Z,21.8
2017-09-20T03:38:24.628Z,21.8
2017-09-20T03:39:32.718Z,21.8
2017-09-20T03:40:40.804Z,21.8
2017-09-20T03:41:48.891Z,21.8
2017-09-20T03:42:56.977Z,21.8
2017-09-20T03:44:05.066Z,21.8
2017-09-20T03:45:13.152Z,21.8
2017-09-20T03:46:21.241Z,21.7
2017-09-20T03:47:29.327Z,21.7
2017-09-20T03:48:37.416Z,21.8
2017-09-20T03:49:45.530Z,21.7
2017-09-20T03:50:53.587Z,21.7
2017-09-20T03:52:01.676Z,21.8
2017-09-20T03:53:09.760Z,21.7
2017-09-20T03:54:17.894Z,21.8
2017-09-20T03:55:26.015Z,21.7
2017-09-20T03:56:34.068Z,21.7
2017-09-20T03:57:42.156Z,21.6
2017-09-20T03:58:50.242Z,21.7
2017-09-20T03:59:58.327Z,21.8
2017-09-20T04:01:06.415Z,21.7
2017-09-20T04:02:14.502Z,21.7
2017-09-20T04:03:22.603Z,21.7
2017-09-20T04:04:30.677Z,21.7
2017-09-20T04:05:38.765Z,21.7
2017-09-20T04:06:46.858Z,21.7
2017-09-20T04:07:54.938Z,21.7
2017-09-20T04:09:03.027Z,21.6
2017-09-20T04:10:11.117Z,21.6
2017-09-20T04:11:19.200Z,21.7
2017-09-20T04:12:27.287Z,21.6
2017-09-20T04:13:35.383Z,21.6
2017-09-20T04:14:43.462Z,21.7
2017-09-20T04:15:51.548Z,21.7
2017-09-20T04:16:59.634Z,21.6
2017-09-20T04:18:07.722Z,21.7
2017-09-20T04:19:15.807Z,21.6
2017-09-20T04:20:23.900Z,21.6
2017-09-20T04:21:32.003Z,21.6
2017-09-20T04:22:40.071Z,21.6
2017-09-20T04:23:48.858Z,21.6
2017-09-20T04:24:56.245Z,21.6
2017-09-20T04:26:04.430Z,21.6
2017-09-20T04:27:12.520Z,21.7
2017-09-20T04:28:21.100Z,21.6
2017-09-20T04:29:28.592Z,21.6
2017-09-20T04:30:36.679Z,21.6
2017-09-20T04:31:44.765Z,21.6
2017-09-20T04:32:52.850Z,21.6
2017-09-20T04:34:00.940Z,21.6
2017-09-20T04:35:09.250Z,21.6
2017-09-20T04:36:17.113Z,21.6
2017-09-20T04:37:25.200Z,21.5
2017-09-20T04:38:33.287Z,21.6
2017-09-20T04:39:41.372Z,21.5
2017-09-20T04:40:49.921Z,21.5
2017-09-20T04:41:57.548Z,21.5
2017-09-20T04:43:05.652Z,21.5
2017-09-20T04:44:13.724Z,21.5
2017-09-20T04:45:21.813Z,21.5
2017-09-20T04:46:29.895Z,21.5
2017-09-20T04:47:38.523Z,21.4
2017-09-20T04:48:46.075Z,21.5
2017-09-20T04:49:54.231Z,21.5
2017-09-20T04:51:02.525Z,21.4
2017-09-20T04:52:10.331Z,21.5
2017-09-20T04:53:18.419Z,21.4
2017-09-20T04:54:26.505Z,21.4
2017-09-20T04:55:34.602Z,21.4
2017-09-20T04:56:42.693Z,21.4
2017-09-20T04:57:51.300Z,21.4
2017-09-20T04:58:59.190Z,21.4
2017-09-20T05:00:07.060Z,21.4
2017-09-20T05:01:15.149Z,21.4
2017-09-20T05:02:23.228Z,21.3
2017-09-20T05:03:31.358Z,21.4
2017-09-20T05:04:39.400Z,21.4
2017-09-20T05:05:47.485Z,21.4
2017-09-20T05:06:55.661Z,21.3
2017-09-20T05:08:03.660Z,21.4
2017-09-20T05:09:11.747Z,21.3
2017-09-20T05:10:19.833Z,21.3
2017-09-20T05:11:27.919Z,21.3
2017-09-20T05:12:36.007Z,21.3
2017-09-20T05:13:44.093Z,21.3
2017-09-20T05:14:52.181Z,21.3
2017-09-20T05:16:00.271Z,21.3
2017-09-20T05:17:08.353Z,21.3
2017-09-20T05:18:16.450Z,21.3
2017-09-20T05:19:24.527Z,21.3
2017-09-20T05:20:32.627Z,21.2
2017-09-20T05:21:40.711Z,21.2
2017-09-20T05:22:48.808Z,21.3
2017-09-20T05:23:56.899Z,21.3
2017-09-20T05:25:04.983Z,21.3
2017-09-20T05:26:13.069Z,21.2
2017-09-20T05:27:21.158Z,21.2
2017-09-20T05:28:29.242Z,21.1
2017-09-20T05:29:37.330Z,21.1
2017-09-20T05:30:45.417Z,21.2
2017-09-20T05:31:53.503Z,21.2
2017-09-20T05:33:01.592Z,21.2
2017-09-20T05:34:09.676Z,21.1
2017-09-20T05:35:17.790Z,21.2
2017-09-20T05:36:25.880Z,21.2
2017-09-20T05:37:33.963Z,21.1
2017-09-20T05:38:42.050Z,21.1
2017-09-20T05:39:50.135Z,21.1
2017-09-20T05:40:58.221Z,21.1
2017-09-20T05:42:06.314Z,21.1
2017-09-20T05:43:14.398Z,21.0
2017-09-20T05:44:22.483Z,21.0
2017-09-20T05:45:30.571Z,21.0
2017-09-20T05:46:38.674Z,21.0
2017-09-20T05:47:46.744Z,21.1
2017-09-20T05:48:54.830Z,21.0
2017-09-20T05:50:02.999Z,21.1
2017-09-20T05:51:11.001Z,21.1
2017-09-20T05:52:19.087Z,21.0
2017-09-20T05:53:27.177Z,21.0
2017-09-20T05:54:35.264Z,20.9
2017-09-20T05:55:43.350Z,21.0
2017-09-20T05:56:51.436Z,21.0
2017-09-20T05:57:59.521Z,21.0
2017-09-20T05:59:07.609Z,21.0
2017-09-20T06:00:15.699Z,21.0
2017-09-20T06:01:23.782Z,21.0
2017-09-20T06:02:31.868Z,21.0
2017-09-20T06:03:39.957Z,20.9
2017-09-20T06:04:48.041Z,20.9
2017-09-20T06:05:56.129Z,20.9
2017-09-20T06:07:04.214Z,21.0
2017-09-20T06:08:12.299Z,20.9
2017-09-20T06:09:20.386Z,20.9
2017-09-20T06:10:28.473Z,20.9
2017-09-20T06:11:36.562Z,20.9
2017-09-20T06:12:44.665Z,20.9
2017-09-20T06:13:52.732Z,20.9
2017-09-20T06:15:01.102Z,20.8
2017-09-20T06:16:08.906Z,20.8
2017-09-20T06:17:16.991Z,20.8
2017-09-20T06:18:25.074Z,20.8
2017-09-20T06:19:33.161Z,20.8
2017-09-20T06:20:41.247Z,20.8
2017-09-20T06:21:49.333Z,20.7
2017-09-20T06:22:57.420Z,20.8
2017-09-20T06:24:05.516Z,20.8
2017-09-20T06:25:13.592Z,20.8
2017-09-20T06:26:21.680Z,20.8
2017-09-20T06:27:29.781Z,20.8
2017-09-20T06:28:37.849Z,20.7
2017-09-20T06:29:45.937Z,20.7
2017-09-20T06:30:54.023Z,20.8
2017-09-20T06:32:02.109Z,20.7
2017-09-20T06:33:10.195Z,20.7
2017-09-20T06:34:18.282Z,20.7
2017-09-20T06:35:26.367Z,20.7
2017-09-20T06:36:34.455Z,20.7
2017-09-20T06:37:42.547Z,20.7
2017-09-20T06:38:50.642Z,20.7
2017-09-20T06:39:58.709Z,20.7
2017-09-20T06:41:06.797Z,20.7
2017-09-20T06:42:14.883Z,20.7
2017-09-20T06:43:22.971Z,20.7
2017-09-20T06:44:31.056Z,20.7
2017-09-20T06:45:39.142Z,20.6
2017-09-20T06:46:47.228Z,20.7
2017-09-20T06:47:55.314Z,20.6
2017-09-20T06:49:03.401Z,20.6
2017-09-20T06:50:11.484Z,20.6
2017-09-20T06:51:19.573Z,20.6
2017-09-20T06:52:27.658Z,20.6
2017-09-20T06:53:35.802Z,20.6
2017-09-20T06:54:43.830Z,20.5
2017-09-20T06:55:51.917Z,20.6
2017-09-20T06:57:00.007Z,20.6
2017-09-20T06:58:08.089Z,20.6
2017-09-20T06:59:16.177Z,20.5
2017-09-20T07:00:24.259Z,20.5
2017-09-20T07:01:32.346Z,20.6
2017-09-20T07:02:40.451Z,20.5
2017-09-20T07:03:48.518Z,20.5
2017-09-20T07:04:56.605Z,20.5
2017-09-20T07:06:04.691Z,20.5
2017-09-20T07:07:12.805Z,20.6
2017-09-20T07:08:20.862Z,20.5
2017-09-20T07:09:28.948Z,20.5
2017-09-20T07:10:37.044Z,20.5
2017-09-20T07:11:45.130Z,20.5
2017-09-20T07:12:53.217Z,20.5
2017-09-20T07:14:01.303Z,20.5
2017-09-20T07:15:09.388Z,20.5
2017-09-20T07:16:17.473Z,20.5
2017-09-20T07:17:25.560Z,20.5
2017-09-20T07:18:33.650Z,20.4
2017-09-20T07:19:41.732Z,20.4
2017-09-20T07:20:49.820Z,20.5
2017-09-20T07:21:57.906Z,20.5
2017-09-20T07:23:05.994Z,20.5
2017-09-20T07:24:14.079Z,20.4
2017-09-20T07:25:22.165Z,20.5
2017-09-20T07:26:30.250Z,20.5
2017-09-20T07:27:38.338Z,20.4
2017-09-20T07:28:46.423Z,20.5
2017-09-20T07:29:54.509Z,20.5
2017-09-20T07:31:02.597Z,20.5
2017-09-20T07:32:10.683Z,20.5
2017-09-20T07:33:18.783Z,20.4
2017-09-20T07:34:26.865Z,20.4
2017-09-20T07:35:34.957Z,20.5
2017-09-20T07:36:43.044Z,20.5
2017-09-20T07:37:51.139Z,20.5
2017-09-20T07:38:59.225Z,20.4
2017-09-20T07:40:07.312Z,20.5
2017-09-20T07:41:15.397Z,20.4
2017-09-20T07:42:23.484Z,20.5
2017-09-20T07:43:31.572Z,20.5
2017-09-20T07:44:39.655Z,20.5
2017-09-20T07:45:47.762Z,20.5
2017-09-20T07:46:55.847Z,20.4
2017-09-20T07:48:03.945Z,20.5
2017-09-20T07:49:12.033Z,20.5
2017-09-20T07:50:20.106Z,20.5
2017-09-20T07:51:28.193Z,20.6
2017-09-20T07:52:36.290Z,20.5
2017-09-20T07:53:44.370Z,20.5
2017-09-20T07:54:52.451Z,20.5
2017-09-20T07:56:00.538Z,20.5
2017-09-20T07:57:08.626Z,20.3
2017-09-20T07:58:16.715Z,20.5
2017-09-20T07:59:24.801Z,20.6
2017-09-20T08:00:32.887Z,20.4
2017-09-20T08:01:40.972Z,20.5
2017-09-20T08:02:49.058Z,20.5
2017-09-20T08:03:57.159Z,20.5
2017-09-20T08:05:05.230Z,20.5
2017-09-20T08:06:13.316Z,20.4
2017-09-20T08:07:21.401Z,20.4
2017-09-20T08:08:29.491Z,20.4
2017-09-20T08:09:37.575Z,20.4
2017-09-20T08:10:45.671Z,20.5
2017-09-20T08:11:53.790Z,20.5
2017-09-20T08:13:01.874Z,20.5
2017-09-20T08:14:09.968Z,20.4
2017-09-20T08:15:18.043Z,20.4
2017-09-20T08:16:26.131Z,20.4
2017-09-20T08:17:34.219Z,20.5
2017-09-20T08:18:42.321Z,20.4
2017-09-20T08:19:50.406Z,20.4
2017-09-20T08:20:58.493Z,20.3
2017-09-20T08:22:06.579Z,20.5
2017-09-20T08:23:14.675Z,20.4
2017-09-20T08:24:22.761Z,20.4
2017-09-20T08:25:30.851Z,20.5
2017-09-20T08:26:38.934Z,20.5
2017-09-20T08:27:47.019Z,20.5
2017-09-20T08:28:55.106Z,20.4
2017-09-20T08:30:03.190Z,20.5
2017-09-20T08:31:11.279Z,20.5
2017-09-20T08:32:19.364Z,20.4
2017-09-20T08:33:27.448Z,20.5
2017-09-20T08:34:35.536Z,20.5
2017-09-20T08:35:43.630Z,20.5
2017-09-20T08:36:51.714Z,20.5
2017-09-20T08:37:59.801Z,20.5
2017-09-20T08:39:07.887Z,20.5
2017-09-20T08:40:15.972Z,20.5
2017-09-20T08:41:24.059Z,20.4
2017-09-20T08:42:32.146Z,20.5
2017-09-20T08:43:40.233Z,20.3
2017-09-20T08:44:48.321Z,20.4
2017-09-20T08:45:56.408Z,20.4
2017-09-20T08:47:04.489Z,20.4
2017-09-20T08:48:12.575Z,20.5
2017-09-20T08:49:20.662Z,20.4
2017-09-20T08:50:28.750Z,20.5
2017-09-20T08:51:36.835Z,20.3
2017-09-20T08:52:44.922Z,20.3
2017-09-20T08:53:53.007Z,20.4
2017-09-20T08:55:01.094Z,20.3
2017-09-20T08:56:09.180Z,20.3
2017-09-20T08:57:17.265Z,20.4
2017-09-20T08:58:25.353Z,20.4
2017-09-20T08:59:33.437Z,20.4
2017-09-20T09:00:41.543Z,20.3
2017-09-20T09:01:49.610Z,20.4
2017-09-20T09:02:57.695Z,20.3
2017-09-20T09:04:05.798Z,20.4
2017-09-20T09:05:13.867Z,20.4
2017-09-20T09:06:21.952Z,20.3
2017-09-20T09:07:30.039Z,20.3
2017-09-20T09:08:38.124Z,20.4
2017-09-20T09:09:46.212Z,20.4
2017-09-20T09:10:54.317Z,20.4
2017-09-20T09:12:02.382Z,20.4
2017-09-20T09:13:10.487Z,20.3
2017-09-20T09:14:18.574Z,20.4
2017-09-20T09:15:26.657Z,20.4
2017-09-20T09:16:34.752Z,20.3
2017-09-20T09:17:42.839Z,20.4
2017-09-20T09:18:50.924Z,20.3
2017-09-20T09:19:59.010Z,20.3
2017-09-20T09:21:07.096Z,20.3
2017-09-20T09:22:15.184Z,20.3
2017-09-20T09:23:23.270Z,20.4
2017-09-20T09:24:31.357Z,20.4
2017-09-20T09:25:39.446Z,20.4
2017-09-20T09:26:47.532Z,20.4
2017-09-20T09:27:55.616Z,20.3
2017-09-20T09:29:03.701Z,20.3
2017-09-20T09:30:11.787Z,20.3
2017-09-20T09:31:19.873Z,20.4
2017-09-20T09:32:27.958Z,20.4
2017-09-20T09:33:36.051Z,20.4
2017-09-20T09:34:44.131Z,20.4
2017-09-20T09:35:52.217Z,20.3
2017-09-20T09:37:00.316Z,20.3
2017-09-20T09:38:08.390Z,20.5
2017-09-20T09:39:16.475Z,20.3
2017-09-20T09:40:24.562Z,20.4
2017-09-20T09:41:32.648Z,20.4
2017-09-20T09:42:40.738Z,20.4
2017-09-20T09:43:48.821Z,20.5
2017-09-20T09:44:56.909Z,20.4
2017-09-20T09:46:04.993Z,20.5
2017-09-20T09:47:13.081Z,20.4
2017-09-20T09:48:21.169Z,20.5
2017-09-20T09:49:29.252Z,20.5
2017-09-20T09:50:37.352Z,20.5
2017-09-20T09:51:45.422Z,20.4
2017-09-20T09:52:53.519Z,20.5
2017-09-20T09:54:01.606Z,20.5
2017-09-20T09:55:09.682Z,20.3
2017-09-20T09:56:17.771Z,20.5
2017-09-20T09:57:25.857Z,20.4
2017-09-20T09:58:33.942Z,20.5
2017-09-20T09:59:42.025Z,20.5
2017-09-20T10:00:50.112Z,20.5
2017-09-20T10:01:58.200Z,20.5
2017-09-20T10:03:06.285Z,20.5
2017-09-20T10:04:14.377Z,20.4
2017-09-20T10:05:22.460Z,20.5
2017-09-20T10:06:30.543Z,20.4
2017-09-20T10:07:38.638Z,20.5
2017-09-20T10:08:46.717Z,20.4
2017-09-20T10:09:54.802Z,20.5
2017-09-20T10:11:02.887Z,20.5
2017-09-20T10:12:10.974Z,20.5
2017-09-20T10:13:19.060Z,20.4
2017-09-20T10:14:27.146Z,20.5
2017-09-20T10:15:35.233Z,20.5
2017-09-20T10:16:43.323Z,20.5
2017-09-20T10:17:51.409Z,20.5
2017-09-20T10:18:59.493Z,20.5
2017-09-20T10:20:07.580Z,20.4
2017-09-20T10:21:15.666Z,20.5
2017-09-20T10:22:23.752Z,20.4
2017-09-20T10:23:31.849Z,20.5
2017-09-20T10:24:39.932Z,20.3
2017-09-20T10:25:48.019Z,20.5
2017-09-20T10:26:56.103Z,20.4
2017-09-20T10:28:04.191Z,20.4
2017-09-20T10:29:12.279Z,20.5
2017-09-20T10:30:20.366Z,20.5
2017-09-20T10:31:28.450Z,20.5
2017-09-20T10:32:36.547Z,20.4
2017-09-20T10:33:44.625Z,20.4
2017-09-20T10:34:52.717Z,20.5
2017-09-20T10:36:00.797Z,20.4
2017-09-20T10:37:08.883Z,20.5
2017-09-20T10:38:16.969Z,20.5
2017-09-20T10:39:25.055Z,20.5
2017-09-20T10:40:33.142Z,20.5
2017-09-20T10:41:41.227Z,20.4
2017-09-20T10:42:49.316Z,20.5
2017-09-20T10:43:57.400Z,20.4
2017-09-20T10:45:05.485Z,20.5
2017-09-20T10:46:13.621Z,20.4
2017-09-20T10:47:21.657Z,20.5
2017-09-20T10:48:29.742Z,20.4
2017-09-20T10:49:37.829Z,20.5
2017-09-20T10:50:45.917Z,20.5
2017-09-20T10:51:54.003Z,20.5
2017-09-20T10:53:02.096Z,20.5
2017-09-20T10:54:10.175Z,20.5
2017-09-20T10:55:18.339Z,20.5
2017-09-20T10:56:26.350Z,20.6
2017-09-20T10:57:34.436Z,20.5
2017-09-20T10:58:42.523Z,20.4
2017-09-20T10:59:50.610Z,20.6
2017-09-20T11:00:58.695Z,20.4
2017-09-20T11:02:06.987Z,20.5
2017-09-20T11:03:14.868Z,20.5
2017-09-20T11:04:22.954Z,20.5
2017-09-20T11:05:31.041Z,20.5
2017-09-20T11:06:39.125Z,20.4
2017-09-20T11:07:47.230Z,20.5
2017-09-20T11:08:55.319Z,20.4
2017-09-20T11:10:03.541Z,20.5
2017-09-20T11:11:11.537Z,20.4
2017-09-20T11:12:19.630Z,20.5
2017-09-20T11:13:27.717Z,20.5
2017-09-20T11:14:35.799Z,20.5
2017-09-20T11:15:43.915Z,20.5
2017-09-20T11:16:51.970Z,20.4
2017-09-20T11:18:00.056Z,20.4
2017-09-20T11:19:08.151Z,20.4
2017-09-20T11:20:16.232Z,20.5
2017-09-20T11:21:24.320Z,20.4
2017-09-20T11:22:32.406Z,20.5
2017-09-20T11:23:40.491Z,20.5
2017-09-20T11:24:48.576Z,20.5
2017-09-20T11:25:56.665Z,20.5
2017-09-20T11:27:04.757Z,20.6
2017-09-20T11:28:12.838Z,20.5
2017-09-20T11:29:20.935Z,20.3
2017-09-20T11:30:29.011Z,20.4
2017-09-20T11:31:37.099Z,20.4
2017-09-20T11:32:45.183Z,20.6
2017-09-20T11:33:53.269Z,20.5
2017-09-20T11:35:01.350Z,20.5
2017-09-20T11:36:09.445Z,20.5
2017-09-20T11:37:17.533Z,20.5
2017-09-20T11:38:25.634Z,20.5
2017-09-20T11:39:33.705Z,20.5
2017-09-20T11:40:41.791Z,20.5
2017-09-20T11:41:49.878Z,20.5
2017-09-20T11:42:57.980Z,20.4
2017-09-20T11:44:06.053Z,20.5
2017-09-20T11:45:14.136Z,20.4
2017-09-20T11:46:22.224Z,20.4
2017-09-20T11:47:30.309Z,20.5
2017-09-20T11:48:38.394Z,20.4
2017-09-20T11:49:46.483Z,20.4
2017-09-20T11:50:54.566Z,20.5
2017-09-20T11:52:02.669Z,20.4
2017-09-20T11:53:10.755Z,20.5
2017-09-20T11:54:18.842Z,20.5
2017-09-20T11:55:26.940Z,20.4
2017-09-20T11:56:35.015Z,20.3
2017-09-20T11:57:43.099Z,20.5
2017-09-20T11:58:51.185Z,20.5
2017-09-20T11:59:59.274Z,20.5
2017-09-20T12:01:07.358Z,20.4
2017-09-20T12:02:15.444Z,20.5
2017-09-20T12:03:23.536Z,20.5
2017-09-20T12:04:31.622Z,20.5
2017-09-20T12:05:39.707Z,20.5
2017-09-20T12:06:47.798Z,20.5
2017-09-20T12:07:55.882Z,20.5
2017-09-20T12:09:03.969Z,20.5
2017-09-20T12:10:12.109Z,20.4
2017-09-20T12:11:20.218Z,20.5
2017-09-20T12:12:28.328Z,20.4
2017-09-20T12:13:36.364Z,20.4
2017-09-20T12:14:44.456Z,20.3
2017-09-20T12:15:52.538Z,20.4
2017-09-20T12:17:00.632Z,20.3
2017-09-20T12:18:08.709Z,20.4
2017-09-20T12:19:16.797Z,20.3
2017-09-20T12:20:24.889Z,20.4
2017-09-20T12:21:32.967Z,20.4
2017-09-20T12:22:41.054Z,20.4
2017-09-20T12:23:49.140Z,20.3
2017-09-20T12:24:57.231Z,20.4
2017-09-20T12:26:05.312Z,20.3
2017-09-20T12:27:13.399Z,20.4
2017-09-20T12:28:21.491Z,20.4
2017-09-20T12:29:29.574Z,20.4
2017-09-20T12:30:37.667Z,20.4
2017-09-20T12:31:45.752Z,20.4
2017-09-20T12:32:53.839Z,20.4
2017-09-20T12:34:01.925Z,20.3
2017-09-20T12:35:10.022Z,20.3
2017-09-20T12:36:18.105Z,20.3
2017-09-20T12:37:26.190Z,20.3
2017-09-20T12:38:34.277Z,20.3
2017-09-20T12:39:42.363Z,20.3
2017-09-20T12:40:50.454Z,20.3
2017-09-20T12:41:58.536Z,20.3
2017-09-20T12:43:07.271Z,20.3
2017-09-20T12:44:14.708Z,20.3
2017-09-20T12:45:22.792Z,20.3
2017-09-20T12:46:30.880Z,20.3
2017-09-20T12:47:38.963Z,20.3
2017-09-20T12:48:47.052Z,20.3
2017-09-20T12:49:55.137Z,20.3
2017-09-20T12:51:03.223Z,20.3
2017-09-20T12:52:11.316Z,20.3
2017-09-20T12:53:19.402Z,20.3
2017-09-20T12:54:27.485Z,20.3
2017-09-20T12:55:35.566Z,20.3
2017-09-20T12:56:43.682Z,20.3
2017-09-20T12:57:51.742Z,20.2
2017-09-20T12:58:59.823Z,20.3
2017-09-20T13:00:07.913Z,20.2
2017-09-20T13:01:16.000Z,20.3
2017-09-20T13:02:24.085Z,20.2
2017-09-20T13:03:32.191Z,20.3
2017-09-20T13:04:40.258Z,20.2
2017-09-20T13:05:48.342Z,20.3
2017-09-20T13:06:56.429Z,20.2
2017-09-20T13:08:04.515Z,20.2
2017-09-20T13:09:12.613Z,20.3
2017-09-20T13:10:20.696Z,20.3
2017-09-20T13:11:28.776Z,20.3
2017-09-20T13:12:36.861Z,20.2
2017-09-20T13:13:44.958Z,20.3
2017-09-20T13:14:53.043Z,20.3
2017-09-20T13:16:01.129Z,20.3
2017-09-20T13:17:09.214Z,20.2
2017-09-20T13:18:17.301Z,20.2
2017-09-20T13:19:25.387Z,20.3
2017-09-20T13:20:33.476Z,20.2
2017-09-20T13:21:41.560Z,20.3
2017-09-20T13:22:49.646Z,20.3
2017-09-20T13:23:57.731Z,20.2
2017-09-20T13:25:05.819Z,20.3
2017-09-20T13:26:13.903Z,20.2
2017-09-20T13:27:21.990Z,20.2
2017-09-20T13:28:30.075Z,20.3
2017-09-20T13:29:38.166Z,20.3
2017-09-20T13:30:46.252Z,20.3
2017-09-20T13:31:54.342Z,20.2
2017-09-20T13:33:02.423Z,20.2
2017-09-20T13:34:10.510Z,20.3
2017-09-20T13:35:18.597Z,20.2
2017-09-20T13:36:26.682Z,20.3
2017-09-20T13:37:34.769Z,20.2
2017-09-20T13:38:42.865Z,20.3
2017-09-20T13:39:50.953Z,20.2
2017-09-20T13:40:59.036Z,20.3
2017-09-20T13:42:07.123Z,20.3
2017-09-20T13:43:15.210Z,20.3
2017-09-20T13:44:23.315Z,20.3
2017-09-20T13:45:31.382Z,20.3
2017-09-20T13:46:39.470Z,20.3
2017-09-20T13:47:47.555Z,20.3
2017-09-20T13:48:55.640Z,20.2
2017-09-20T13:50:03.736Z,20.3
2017-09-20T13:51:11.823Z,20.3
2017-09-20T13:52:19.909Z,20.3
2017-09-20T13:53:27.993Z,20.2
2017-09-20T13:54:36.080Z,20.2
2017-09-20T13:55:44.165Z,20.2
2017-09-20T13:56:52.258Z,20.3
2017-09-20T13:58:00.337Z,20.2
2017-09-20T13:59:08.433Z,20.2
2017-09-20T14:00:16.518Z,20.2
2017-09-20T14:01:24.605Z,20.2
2017-09-20T14:02:32.690Z,20.3
2017-09-20T14:03:40.797Z,20.1
2017-09-20T14:04:48.862Z,20.2
2017-09-20T14:05:56.947Z,20.2
2017-09-20T14:07:05.034Z,20.2
2017-09-20T14:08:13.121Z,20.2
2017-09-20T14:09:21.212Z,20.1
2017-09-20T14:10:29.299Z,20.3
2017-09-20T14:11:37.388Z,20.2
2017-09-20T14:12:45.482Z,20.2
2017-09-20T14:13:53.568Z,20.1
2017-09-20T14:15:01.653Z,20.1
2017-09-20T14:16:09.741Z,20.2
2017-09-20T14:17:17.825Z,20.2
2017-09-20T14:18:25.911Z,20.1
2017-09-20T14:19:33.996Z,20.2
2017-09-20T14:20:42.080Z,20.1
2017-09-20T14:21:50.167Z,20.1
2017-09-20T14:22:58.252Z,20.1
2017-09-20T14:24:06.348Z,20.1
2017-09-20T14:25:14.456Z,20.1
2017-09-20T14:26:22.522Z,20.1
2017-09-20T14:27:30.628Z,20.1
2017-09-20T14:28:38.694Z,20.1
2017-09-20T14:29:46.777Z,20.1
2017-09-20T14:30:54.879Z,20.1
2017-09-20T14:32:02.951Z,20.1
2017-09-20T14:33:11.038Z,20.1
2017-09-20T14:34:19.129Z,20.1
2017-09-20T14:35:27.215Z,20.1
2017-09-20T14:36:35.301Z,20.1
2017-09-20T14:37:43.386Z,20.1
2017-09-20T14:38:51.472Z,20.1
2017-09-20T14:39:59.557Z,20.1
2017-09-20T14:41:07.655Z,20.2
2017-09-20T14:42:15.731Z,20.0
2017-09-20T14:43:23.817Z,20.1
2017-09-20T14:44:31.905Z,20.1
2017-09-20T14:45:39.988Z,20.1
2017-09-20T14:46:48.077Z,20.1
2017-09-20T14:47:56.159Z,20.1
2017-09-20T14:49:04.265Z,20.0
2017-09-20T14:50:12.351Z,20.1
2017-09-20T14:51:20.507Z,20.1
2017-09-20T14:52:28.521Z,20.1
2017-09-20T14:53:36.640Z,20.1
2017-09-20T14:54:44.713Z,20.1
2017-09-20T14:55:52.799Z,20.0
2017-09-20T14:57:00.887Z,20.0
2017-09-20T14:58:08.977Z,20.1
2017-09-20T14:59:17.102Z,20.1
2017-09-20T15:00:25.140Z,20.0
2017-09-20T15:01:33.226Z,20.1
2017-09-20T15:02:41.312Z,20.0
2017-09-20T15:03:49.397Z,20.1
2017-09-20T15:04:57.488Z,20.0
2017-09-20T15:06:05.577Z,20.1